sensor_id;sensor_type;location;lat;lon;timestamp;temperature;humidity
17815;DHT22;9031;50.974;11.330;2022-09-21T00:00:23;6.80;99.90
17815;DHT22;9031;50.974;11.330;2022-09-21T00:02:49;6.90;99.90
17815;DHT22;9031;50.974;11.330;2022-09-21T00:05:15;6.90;99.90
17815;DHT22;9031;50.974;11.330;2022-09-21T00:07:41;7.00;99.90
17815;DHT22;9031;50.974;11.330;2022-09-21T00:10:08;7.10;99.90
17815;DHT22;9031;50.974;11.330;2022-09-21T00:12:33;7.10;99.90
17815;DHT22;9031;50.974;11.330;2022-09-21T00:14:59;7.10;99.90
17815;DHT22;9031;50.974;11.330;2022-09-21T00:17:25;7.10;99.90
17815;DHT22;9031;50.974;11.330;2022-09-21T00:19:50;7.20;99.90
17815;DHT22;9031;50.974;11.330;2022-09-21T00:22:16;7.20;99.90
17815;DHT22;9031;50.974;11.330;2022-09-21T00:24:42;7.20;99.90
17815;DHT22;9031;50.974;11.330;2022-09-21T00:27:07;7.20;99.90
17815;DHT22;9031;50.974;11.330;2022-09-21T00:29:33;7.20;99.90
17815;DHT22;9031;50.974;11.330;2022-09-21T00:31:59;7.10;99.90
17815;DHT22;9031;50.974;11.330;2022-09-21T00:34:25;7.20;99.90
17815;DHT22;9031;50.974;11.330;2022-09-21T00:36:51;7.20;99.90
17815;DHT22;9031;50.974;11.330;2022-09-21T00:39:17;7.10;99.90
17815;DHT22;9031;50.974;11.330;2022-09-21T00:41:42;7.10;99.90
17815;DHT22;9031;50.974;11.330;2022-09-21T00:46:44;7.10;99.90
17815;DHT22;9031;50.974;11.330;2022-09-21T00:49:11;7.10;99.90
17815;DHT22;9031;50.974;11.330;2022-09-21T00:51:38;7.00;99.90
17815;DHT22;9031;50.974;11.330;2022-09-21T00:54:07;7.10;99.90
17815;DHT22;9031;50.974;11.330;2022-09-21T00:56:35;7.10;99.90
17815;DHT22;9031;50.974;11.330;2022-09-21T00:59:02;7.00;99.90
17815;DHT22;9031;50.974;11.330;2022-09-21T01:01:28;6.90;99.90
17815;DHT22;9031;50.974;11.330;2022-09-21T01:03:53;6.90;99.90
17815;DHT22;9031;50.974;11.330;2022-09-21T01:06:21;6.80;99.90
17815;DHT22;9031;50.974;11.330;2022-09-21T01:08:50;6.80;99.90
17815;DHT22;9031;50.974;11.330;2022-09-21T01:17:16;6.80;99.90
17815;DHT22;9031;50.974;11.330;2022-09-21T01:26:08;6.90;99.90
17815;DHT22;9031;50.974;11.330;2022-09-21T01:31:10;6.90;99.90
17815;DHT22;9031;50.974;11.330;2022-09-21T01:33:44;6.90;99.90
17815;DHT22;9031;50.974;11.330;2022-09-21T01:36:15;6.90;99.90
17815;DHT22;9031;50.974;11.330;2022-09-21T01:38:53;6.90;99.90
17815;DHT22;9031;50.974;11.330;2022-09-21T01:41:22;6.80;99.90
17815;DHT22;9031;50.974;11.330;2022-09-21T01:43:54;6.70;99.90
17815;DHT22;9031;50.974;11.330;2022-09-21T01:46:21;6.60;99.90
17815;DHT22;9031;50.974;11.330;2022-09-21T01:48:53;6.70;99.90
17815;DHT22;9031;50.974;11.330;2022-09-21T01:51:21;6.70;99.90
17815;DHT22;9031;50.974;11.330;2022-09-21T01:54:10;6.60;99.90
17815;DHT22;9031;50.974;11.330;2022-09-21T01:56:43;6.60;99.90
17815;DHT22;9031;50.974;11.330;2022-09-21T01:59:45;6.70;99.90
17815;DHT22;9031;50.974;11.330;2022-09-21T02:02:17;6.70;99.90
17815;DHT22;9031;50.974;11.330;2022-09-21T02:04:44;6.70;99.90
17815;DHT22;9031;50.974;11.330;2022-09-21T02:07:09;6.70;99.90
17815;DHT22;9031;50.974;11.330;2022-09-21T02:09:36;6.60;99.90
17815;DHT22;9031;50.974;11.330;2022-09-21T02:12:02;6.50;99.90
17815;DHT22;9031;50.974;11.330;2022-09-21T02:14:28;6.30;99.90
17815;DHT22;9031;50.974;11.330;2022-09-21T02:22:06;6.30;99.90
17815;DHT22;9031;50.974;11.330;2022-09-21T02:24:47;6.20;99.90
17815;DHT22;9031;50.974;11.330;2022-09-21T02:30:16;6.00;99.90
17815;DHT22;9031;50.974;11.330;2022-09-21T02:33:11;6.00;99.90
17815;DHT22;9031;50.974;11.330;2022-09-21T02:35:44;6.10;99.90
17815;DHT22;9031;50.974;11.330;2022-09-21T02:38:32;6.40;99.90
17815;DHT22;9031;50.974;11.330;2022-09-21T02:41:19;6.50;99.90
17815;DHT22;9031;50.974;11.330;2022-09-21T02:49:11;6.40;99.90
17815;DHT22;9031;50.974;11.330;2022-09-21T02:51:44;6.30;99.90
17815;DHT22;9031;50.974;11.330;2022-09-21T02:54:14;6.20;99.90
17815;DHT22;9031;50.974;11.330;2022-09-21T02:56:41;5.90;99.90
17815;DHT22;9031;50.974;11.330;2022-09-21T02:59:08;5.70;99.90
17815;DHT22;9031;50.974;11.330;2022-09-21T03:01:34;5.70;99.90
17815;DHT22;9031;50.974;11.330;2022-09-21T03:04:01;5.70;99.90
17815;DHT22;9031;50.974;11.330;2022-09-21T03:06:27;5.70;99.90
17815;DHT22;9031;50.974;11.330;2022-09-21T03:08:52;5.70;99.90
17815;DHT22;9031;50.974;11.330;2022-09-21T03:11:18;5.60;99.90
17815;DHT22;9031;50.974;11.330;2022-09-21T03:13:44;5.60;99.90
17815;DHT22;9031;50.974;11.330;2022-09-21T03:16:10;5.50;99.90
17815;DHT22;9031;50.974;11.330;2022-09-21T03:18:36;5.60;99.90
17815;DHT22;9031;50.974;11.330;2022-09-21T03:21:03;5.70;99.90
17815;DHT22;9031;50.974;11.330;2022-09-21T03:23:29;5.80;99.90
17815;DHT22;9031;50.974;11.330;2022-09-21T03:25:55;5.80;99.90
17815;DHT22;9031;50.974;11.330;2022-09-21T03:28:21;5.80;99.90
17815;DHT22;9031;50.974;11.330;2022-09-21T03:30:47;5.80;99.90
17815;DHT22;9031;50.974;11.330;2022-09-21T03:33:13;5.80;99.90
17815;DHT22;9031;50.974;11.330;2022-09-21T03:35:39;5.80;99.90
17815;DHT22;9031;50.974;11.330;2022-09-21T03:38:05;6.00;99.90
17815;DHT22;9031;50.974;11.330;2022-09-21T03:40:31;5.90;99.90
17815;DHT22;9031;50.974;11.330;2022-09-21T03:42:56;5.90;99.90
17815;DHT22;9031;50.974;11.330;2022-09-21T03:45:22;5.90;99.90
17815;DHT22;9031;50.974;11.330;2022-09-21T03:47:48;5.80;99.90
17815;DHT22;9031;50.974;11.330;2022-09-21T03:50:13;5.60;99.90
17815;DHT22;9031;50.974;11.330;2022-09-21T03:52:39;5.40;99.90
17815;DHT22;9031;50.974;11.330;2022-09-21T03:55:07;5.30;99.90
17815;DHT22;9031;50.974;11.330;2022-09-21T03:57:33;5.20;99.90
17815;DHT22;9031;50.974;11.330;2022-09-21T03:59:59;5.20;99.90
17815;DHT22;9031;50.974;11.330;2022-09-21T04:02:26;5.30;99.90
17815;DHT22;9031;50.974;11.330;2022-09-21T04:04:52;5.30;99.90
17815;DHT22;9031;50.974;11.330;2022-09-21T04:07:17;5.20;99.90
17815;DHT22;9031;50.974;11.330;2022-09-21T04:09:43;5.10;99.90
17815;DHT22;9031;50.974;11.330;2022-09-21T04:12:08;4.90;99.90
17815;DHT22;9031;50.974;11.330;2022-09-21T04:14:34;4.90;99.90
17815;DHT22;9031;50.974;11.330;2022-09-21T04:16:59;5.10;99.90
17815;DHT22;9031;50.974;11.330;2022-09-21T04:19:25;5.20;99.90
17815;DHT22;9031;50.974;11.330;2022-09-21T04:21:50;5.20;99.90
17815;DHT22;9031;50.974;11.330;2022-09-21T04:24:17;5.20;99.90
17815;DHT22;9031;50.974;11.330;2022-09-21T04:26:44;5.10;99.90
17815;DHT22;9031;50.974;11.330;2022-09-21T04:29:11;5.00;99.90
17815;DHT22;9031;50.974;11.330;2022-09-21T04:31:37;4.90;99.90
17815;DHT22;9031;50.974;11.330;2022-09-21T04:34:03;4.80;99.90
17815;DHT22;9031;50.974;11.330;2022-09-21T04:36:28;4.70;99.90
17815;DHT22;9031;50.974;11.330;2022-09-21T04:38:54;4.60;99.90
17815;DHT22;9031;50.974;11.330;2022-09-21T04:41:19;4.60;99.90
17815;DHT22;9031;50.974;11.330;2022-09-21T04:43:46;4.60;99.90
17815;DHT22;9031;50.974;11.330;2022-09-21T04:46:18;4.50;99.90
17815;DHT22;9031;50.974;11.330;2022-09-21T04:48:44;4.50;99.90
17815;DHT22;9031;50.974;11.330;2022-09-21T04:51:11;4.60;99.90
17815;DHT22;9031;50.974;11.330;2022-09-21T04:53:38;4.80;99.90
17815;DHT22;9031;50.974;11.330;2022-09-21T04:56:06;5.00;99.90
17815;DHT22;9031;50.974;11.330;2022-09-21T04:58:32;5.10;99.90
17815;DHT22;9031;50.974;11.330;2022-09-21T05:00:57;5.20;99.90
17815;DHT22;9031;50.974;11.330;2022-09-21T05:03:24;5.20;99.90
17815;DHT22;9031;50.974;11.330;2022-09-21T05:05:52;5.10;99.90
17815;DHT22;9031;50.974;11.330;2022-09-21T05:08:18;5.00;99.90
17815;DHT22;9031;50.974;11.330;2022-09-21T05:11:09;5.00;99.90
17815;DHT22;9031;50.974;11.330;2022-09-21T05:13:37;5.10;99.90
17815;DHT22;9031;50.974;11.330;2022-09-21T05:16:03;5.20;99.90
17815;DHT22;9031;50.974;11.330;2022-09-21T05:18:29;5.20;99.90
17815;DHT22;9031;50.974;11.330;2022-09-21T05:20:56;5.20;99.90
17815;DHT22;9031;50.974;11.330;2022-09-21T05:23:22;5.20;99.90
17815;DHT22;9031;50.974;11.330;2022-09-21T05:25:48;5.10;99.90
17815;DHT22;9031;50.974;11.330;2022-09-21T05:28:15;5.00;99.90
17815;DHT22;9031;50.974;11.330;2022-09-21T05:30:42;5.00;99.90
17815;DHT22;9031;50.974;11.330;2022-09-21T05:33:09;5.00;99.90
17815;DHT22;9031;50.974;11.330;2022-09-21T05:35:47;5.10;99.90
17815;DHT22;9031;50.974;11.330;2022-09-21T05:38:19;5.00;99.90
17815;DHT22;9031;50.974;11.330;2022-09-21T05:40:45;4.90;99.90
17815;DHT22;9031;50.974;11.330;2022-09-21T05:43:15;4.90;99.90
17815;DHT22;9031;50.974;11.330;2022-09-21T05:45:45;5.00;99.90
17815;DHT22;9031;50.974;11.330;2022-09-21T05:48:15;5.00;99.90
17815;DHT22;9031;50.974;11.330;2022-09-21T05:51:12;5.10;99.90
17815;DHT22;9031;50.974;11.330;2022-09-21T05:53:59;5.10;99.90
17815;DHT22;9031;50.974;11.330;2022-09-21T06:02:18;5.40;99.90
17815;DHT22;9031;50.974;11.330;2022-09-21T06:04:49;5.40;99.90
17815;DHT22;9031;50.974;11.330;2022-09-21T06:07:15;5.50;99.90
17815;DHT22;9031;50.974;11.330;2022-09-21T06:09:40;5.60;99.90
17815;DHT22;9031;50.974;11.330;2022-09-21T06:12:06;5.60;99.90
17815;DHT22;9031;50.974;11.330;2022-09-21T06:14:32;5.80;99.90
17815;DHT22;9031;50.974;11.330;2022-09-21T06:16:58;6.00;99.90
17815;DHT22;9031;50.974;11.330;2022-09-21T06:19:23;6.20;99.90
17815;DHT22;9031;50.974;11.330;2022-09-21T06:21:49;6.50;99.90
17815;DHT22;9031;50.974;11.330;2022-09-21T06:24:14;6.70;99.90
17815;DHT22;9031;50.974;11.330;2022-09-21T06:26:39;6.80;99.90
17815;DHT22;9031;50.974;11.330;2022-09-21T06:29:05;6.90;99.90
17815;DHT22;9031;50.974;11.330;2022-09-21T06:31:31;7.10;99.90
17815;DHT22;9031;50.974;11.330;2022-09-21T06:33:57;7.20;99.90
17815;DHT22;9031;50.974;11.330;2022-09-21T06:36:22;7.30;99.90
17815;DHT22;9031;50.974;11.330;2022-09-21T06:38:47;7.30;99.90
17815;DHT22;9031;50.974;11.330;2022-09-21T06:41:13;7.40;99.90
17815;DHT22;9031;50.974;11.330;2022-09-21T06:43:38;7.50;99.90
17815;DHT22;9031;50.974;11.330;2022-09-21T06:46:04;7.80;99.90
17815;DHT22;9031;50.974;11.330;2022-09-21T06:48:32;8.00;99.90
17815;DHT22;9031;50.974;11.330;2022-09-21T06:50:59;8.30;99.90
17815;DHT22;9031;50.974;11.330;2022-09-21T06:53:25;8.50;99.90
17815;DHT22;9031;50.974;11.330;2022-09-21T06:55:51;8.70;99.90
17815;DHT22;9031;50.974;11.330;2022-09-21T06:58:17;8.90;99.90
17815;DHT22;9031;50.974;11.330;2022-09-21T07:00:43;9.00;99.90
17815;DHT22;9031;50.974;11.330;2022-09-21T07:03:12;9.20;99.90
17815;DHT22;9031;50.974;11.330;2022-09-21T07:05:38;9.40;99.90
17815;DHT22;9031;50.974;11.330;2022-09-21T07:08:04;9.70;99.90
17815;DHT22;9031;50.974;11.330;2022-09-21T07:10:30;10.00;99.90
17815;DHT22;9031;50.974;11.330;2022-09-21T07:13:01;10.10;99.90
17815;DHT22;9031;50.974;11.330;2022-09-21T07:15:27;10.40;99.90
17815;DHT22;9031;50.974;11.330;2022-09-21T07:17:54;10.50;99.90
17815;DHT22;9031;50.974;11.330;2022-09-21T07:20:20;10.60;99.90
17815;DHT22;9031;50.974;11.330;2022-09-21T07:22:45;10.60;99.90
17815;DHT22;9031;50.974;11.330;2022-09-21T07:25:11;10.60;99.90
17815;DHT22;9031;50.974;11.330;2022-09-21T07:27:37;10.70;99.90
17815;DHT22;9031;50.974;11.330;2022-09-21T07:30:03;10.90;99.90
17815;DHT22;9031;50.974;11.330;2022-09-21T07:32:29;11.00;99.90
17815;DHT22;9031;50.974;11.330;2022-09-21T07:34:56;11.00;99.90
17815;DHT22;9031;50.974;11.330;2022-09-21T07:37:25;11.20;99.90
17815;DHT22;9031;50.974;11.330;2022-09-21T07:39:52;11.40;99.90
17815;DHT22;9031;50.974;11.330;2022-09-21T07:42:18;11.70;99.90
17815;DHT22;9031;50.974;11.330;2022-09-21T07:44:45;12.00;99.90
17815;DHT22;9031;50.974;11.330;2022-09-21T07:47:11;12.10;99.90
17815;DHT22;9031;50.974;11.330;2022-09-21T07:49:38;12.20;99.90
17815;DHT22;9031;50.974;11.330;2022-09-21T07:52:03;12.30;99.90
17815;DHT22;9031;50.974;11.330;2022-09-21T07:54:29;12.50;99.90
17815;DHT22;9031;50.974;11.330;2022-09-21T07:56:56;12.70;99.90
17815;DHT22;9031;50.974;11.330;2022-09-21T07:59:40;13.00;99.90
17815;DHT22;9031;50.974;11.330;2022-09-21T08:02:05;12.90;99.90
17815;DHT22;9031;50.974;11.330;2022-09-21T08:04:31;12.90;99.90
17815;DHT22;9031;50.974;11.330;2022-09-21T08:06:56;13.00;99.90
17815;DHT22;9031;50.974;11.330;2022-09-21T08:09:22;13.20;99.90
17815;DHT22;9031;50.974;11.330;2022-09-21T08:11:47;13.40;99.90
17815;DHT22;9031;50.974;11.330;2022-09-21T08:14:13;13.20;99.90
17815;DHT22;9031;50.974;11.330;2022-09-21T08:16:44;13.20;99.90
17815;DHT22;9031;50.974;11.330;2022-09-21T08:19:11;13.60;99.90
17815;DHT22;9031;50.974;11.330;2022-09-21T08:21:37;13.80;99.90
17815;DHT22;9031;50.974;11.330;2022-09-21T08:24:02;13.90;99.90
17815;DHT22;9031;50.974;11.330;2022-09-21T08:26:28;13.90;99.90
17815;DHT22;9031;50.974;11.330;2022-09-21T08:28:54;13.70;99.90
17815;DHT22;9031;50.974;11.330;2022-09-21T08:31:22;13.80;99.90
17815;DHT22;9031;50.974;11.330;2022-09-21T08:33:49;13.90;99.90
17815;DHT22;9031;50.974;11.330;2022-09-21T08:36:14;14.10;99.90
17815;DHT22;9031;50.974;11.330;2022-09-21T08:38:40;14.40;99.90
17815;DHT22;9031;50.974;11.330;2022-09-21T08:41:31;14.60;99.90
17815;DHT22;9031;50.974;11.330;2022-09-21T08:44:22;14.70;99.90
17815;DHT22;9031;50.974;11.330;2022-09-21T08:47:02;15.10;99.90
17815;DHT22;9031;50.974;11.330;2022-09-21T08:49:30;15.40;99.90
17815;DHT22;9031;50.974;11.330;2022-09-21T08:52:05;15.40;99.90
17815;DHT22;9031;50.974;11.330;2022-09-21T08:54:42;15.30;99.90
17815;DHT22;9031;50.974;11.330;2022-09-21T08:57:12;15.30;99.90
17815;DHT22;9031;50.974;11.330;2022-09-21T08:59:44;15.30;99.90
17815;DHT22;9031;50.974;11.330;2022-09-21T09:10:43;16.50;99.90
17815;DHT22;9031;50.974;11.330;2022-09-21T09:21:27;16.40;99.90
17815;DHT22;9031;50.974;11.330;2022-09-21T09:24:01;16.80;99.90
17815;DHT22;9031;50.974;11.330;2022-09-21T09:26:43;17.40;99.90
17815;DHT22;9031;50.974;11.330;2022-09-21T09:29:27;17.80;99.90
17815;DHT22;9031;50.974;11.330;2022-09-21T09:31:54;17.90;99.90
17815;DHT22;9031;50.974;11.330;2022-09-21T09:34:36;17.70;99.90
17815;DHT22;9031;50.974;11.330;2022-09-21T09:37:14;17.30;99.90
17815;DHT22;9031;50.974;11.330;2022-09-21T09:39:47;17.50;99.90
17815;DHT22;9031;50.974;11.330;2022-09-21T09:50:29;18.10;99.90
17815;DHT22;9031;50.974;11.330;2022-09-21T09:53:11;17.40;99.90
17815;DHT22;9031;50.974;11.330;2022-09-21T09:55:40;17.20;99.90
17815;DHT22;9031;50.974;11.330;2022-09-21T09:58:16;16.70;99.90
17815;DHT22;9031;50.974;11.330;2022-09-21T10:00:43;16.90;99.90
17815;DHT22;9031;50.974;11.330;2022-09-21T10:03:21;17.30;99.90
17815;DHT22;9031;50.974;11.330;2022-09-21T10:05:48;17.40;99.90
17815;DHT22;9031;50.974;11.330;2022-09-21T10:11:14;16.50;99.90
17815;DHT22;9031;50.974;11.330;2022-09-21T10:13:46;16.20;99.90
17815;DHT22;9031;50.974;11.330;2022-09-21T10:21:24;17.40;99.90
17815;DHT22;9031;50.974;11.330;2022-09-21T10:23:57;17.60;99.90
17815;DHT22;9031;50.974;11.330;2022-09-21T10:26:28;16.90;99.90
17815;DHT22;9031;50.974;11.330;2022-09-21T10:34:36;15.50;99.90
17815;DHT22;9031;50.974;11.330;2022-09-21T10:39:49;15.20;99.90
17815;DHT22;9031;50.974;11.330;2022-09-21T10:42:17;15.10;99.90
17815;DHT22;9031;50.974;11.330;2022-09-21T10:44:48;15.20;99.90
17815;DHT22;9031;50.974;11.330;2022-09-21T10:47:33;16.40;99.90
17815;DHT22;9031;50.974;11.330;2022-09-21T10:50:03;18.60;99.90
17815;DHT22;9031;50.974;11.330;2022-09-21T10:52:36;20.90;99.90
17815;DHT22;9031;50.974;11.330;2022-09-21T10:55:04;22.00;99.90
17815;DHT22;9031;50.974;11.330;2022-09-21T10:57:31;23.20;99.90
17815;DHT22;9031;50.974;11.330;2022-09-21T11:00:00;23.30;99.90
17815;DHT22;9031;50.974;11.330;2022-09-21T11:02:36;24.50;99.90
17815;DHT22;9031;50.974;11.330;2022-09-21T11:05:37;25.70;99.90
17815;DHT22;9031;50.974;11.330;2022-09-21T11:08:24;26.10;99.90
17815;DHT22;9031;50.974;11.330;2022-09-21T11:13:51;26.00;99.90
17815;DHT22;9031;50.974;11.330;2022-09-21T11:16:32;25.70;99.90
17815;DHT22;9031;50.974;11.330;2022-09-21T11:22:23;25.50;99.90
17815;DHT22;9031;50.974;11.330;2022-09-21T11:27:34;21.20;99.90
17815;DHT22;9031;50.974;11.330;2022-09-21T11:30:12;19.30;99.90
17815;DHT22;9031;50.974;11.330;2022-09-21T11:35:21;16.80;99.90
17815;DHT22;9031;50.974;11.330;2022-09-21T11:38:03;16.70;99.90
17815;DHT22;9031;50.974;11.330;2022-09-21T11:43:41;17.20;99.90
17815;DHT22;9031;50.974;11.330;2022-09-21T11:49:19;18.90;99.90
17815;DHT22;9031;50.974;11.330;2022-09-21T11:57:36;26.60;99.90
17815;DHT22;9031;50.974;11.330;2022-09-21T12:00:07;28.20;99.30
17815;DHT22;9031;50.974;11.330;2022-09-21T12:22:32;29.30;92.60
17815;DHT22;9031;50.974;11.330;2022-09-21T12:25:11;29.00;91.60
17815;DHT22;9031;50.974;11.330;2022-09-21T12:27:40;29.30;90.60
17815;DHT22;9031;50.974;11.330;2022-09-21T12:30:13;29.60;91.20
17815;DHT22;9031;50.974;11.330;2022-09-21T12:32:54;29.80;90.20
17815;DHT22;9031;50.974;11.330;2022-09-21T12:35:44;27.90;90.60
17815;DHT22;9031;50.974;11.330;2022-09-21T12:40:59;23.30;96.50
17815;DHT22;9031;50.974;11.330;2022-09-21T12:46:24;20.80;99.90
17815;DHT22;9031;50.974;11.330;2022-09-21T12:48:52;22.80;99.90
17815;DHT22;9031;50.974;11.330;2022-09-21T12:51:33;25.80;96.70
17815;DHT22;9031;50.974;11.330;2022-09-21T12:54:08;27.90;94.60
17815;DHT22;9031;50.974;11.330;2022-09-21T12:56:44;28.50;93.30
17815;DHT22;9031;50.974;11.330;2022-09-21T12:59:40;29.70;91.70
17815;DHT22;9031;50.974;11.330;2022-09-21T13:10:12;30.20;90.30
17815;DHT22;9031;50.974;11.330;2022-09-21T13:12:40;29.90;89.60
17815;DHT22;9031;50.974;11.330;2022-09-21T13:15:21;29.70;90.10
17815;DHT22;9031;50.974;11.330;2022-09-21T13:18:03;29.80;87.80
17815;DHT22;9031;50.974;11.330;2022-09-21T13:20:34;29.00;88.10
17815;DHT22;9031;50.974;11.330;2022-09-21T13:23:01;27.90;90.30
17815;DHT22;9031;50.974;11.330;2022-09-21T13:25:29;28.00;90.20
17815;DHT22;9031;50.974;11.330;2022-09-21T13:28:03;26.60;91.20
17815;DHT22;9031;50.974;11.330;2022-09-21T13:30:34;24.50;93.30
17815;DHT22;9031;50.974;11.330;2022-09-21T13:33:01;23.20;95.10
17815;DHT22;9031;50.974;11.330;2022-09-21T13:52:01;23.50;94.30
17815;DHT22;9031;50.974;11.330;2022-09-21T13:54:35;22.70;94.90
17815;DHT22;9031;50.974;11.330;2022-09-21T13:57:24;21.00;95.90
17815;DHT22;9031;50.974;11.330;2022-09-21T14:02:41;19.90;98.20
17815;DHT22;9031;50.974;11.330;2022-09-21T14:05:43;20.50;98.60
17815;DHT22;9031;50.974;11.330;2022-09-21T14:10:55;21.10;97.90
17815;DHT22;9031;50.974;11.330;2022-09-21T14:13:32;21.30;97.40
17815;DHT22;9031;50.974;11.330;2022-09-21T14:18:59;24.30;94.90
17815;DHT22;9031;50.974;11.330;2022-09-21T14:21:25;24.60;94.40
17815;DHT22;9031;50.974;11.330;2022-09-21T14:24:08;25.20;93.20
17815;DHT22;9031;50.974;11.330;2022-09-21T14:31:55;25.40;91.40
17815;DHT22;9031;50.974;11.330;2022-09-21T14:34:25;24.60;95.30
17815;DHT22;9031;50.974;11.330;2022-09-21T14:36:54;23.80;96.30
17815;DHT22;9031;50.974;11.330;2022-09-21T14:39:32;23.30;98.00
17815;DHT22;9031;50.974;11.330;2022-09-21T14:42:14;22.20;99.40
17815;DHT22;9031;50.974;11.330;2022-09-21T14:44:41;21.70;99.90
17815;DHT22;9031;50.974;11.330;2022-09-21T14:47:21;21.40;99.90
17815;DHT22;9031;50.974;11.330;2022-09-21T15:00:54;20.50;99.90
17815;DHT22;9031;50.974;11.330;2022-09-21T15:12:36;19.20;99.90
17815;DHT22;9031;50.974;11.330;2022-09-21T15:15:34;18.70;99.90
17815;DHT22;9031;50.974;11.330;2022-09-21T15:18:22;18.20;99.90
17815;DHT22;9031;50.974;11.330;2022-09-21T15:23:45;17.80;99.90
17815;DHT22;9031;50.974;11.330;2022-09-21T15:26:17;17.80;99.90
17815;DHT22;9031;50.974;11.330;2022-09-21T15:28:47;17.70;99.90
17815;DHT22;9031;50.974;11.330;2022-09-21T15:31:14;17.70;99.90
17815;DHT22;9031;50.974;11.330;2022-09-21T15:33:41;17.70;99.90
17815;DHT22;9031;50.974;11.330;2022-09-21T15:36:11;17.70;99.90
17815;DHT22;9031;50.974;11.330;2022-09-21T15:38:37;17.70;99.90
17815;DHT22;9031;50.974;11.330;2022-09-21T15:41:04;17.60;99.90
17815;DHT22;9031;50.974;11.330;2022-09-21T15:43:31;17.50;99.90
17815;DHT22;9031;50.974;11.330;2022-09-21T15:46:03;17.50;99.90
17815;DHT22;9031;50.974;11.330;2022-09-21T15:48:35;17.60;99.90
17815;DHT22;9031;50.974;11.330;2022-09-21T15:53:39;17.70;99.90
17815;DHT22;9031;50.974;11.330;2022-09-21T15:56:17;17.70;99.90
17815;DHT22;9031;50.974;11.330;2022-09-21T15:58:43;17.80;99.90
17815;DHT22;9031;50.974;11.330;2022-09-21T16:01:14;17.80;99.90
17815;DHT22;9031;50.974;11.330;2022-09-21T16:03:41;17.90;99.90
17815;DHT22;9031;50.974;11.330;2022-09-21T16:08:42;18.40;99.90
17815;DHT22;9031;50.974;11.330;2022-09-21T16:13:37;19.30;99.90
17815;DHT22;9031;50.974;11.330;2022-09-21T16:16:21;20.10;99.90
17815;DHT22;9031;50.974;11.330;2022-09-21T16:18:49;19.80;99.90
17815;DHT22;9031;50.974;11.330;2022-09-21T16:21:36;19.20;99.90
17815;DHT22;9031;50.974;11.330;2022-09-21T16:24:20;18.60;99.90
17815;DHT22;9031;50.974;11.330;2022-09-21T16:26:58;18.00;99.90
17815;DHT22;9031;50.974;11.330;2022-09-21T16:29:26;17.50;99.90
17815;DHT22;9031;50.974;11.330;2022-09-21T16:32:20;17.10;99.90
17815;DHT22;9031;50.974;11.330;2022-09-21T16:34:52;16.80;99.90
17815;DHT22;9031;50.974;11.330;2022-09-21T16:39:53;16.50;99.90
17815;DHT22;9031;50.974;11.330;2022-09-21T16:42:20;16.40;99.90
17815;DHT22;9031;50.974;11.330;2022-09-21T16:44:47;16.20;99.90
17815;DHT22;9031;50.974;11.330;2022-09-21T16:47:18;16.10;99.90
17815;DHT22;9031;50.974;11.330;2022-09-21T16:49:50;15.80;99.90
17815;DHT22;9031;50.974;11.330;2022-09-21T16:52:23;15.70;99.90
17815;DHT22;9031;50.974;11.330;2022-09-21T16:54:49;15.60;99.90
17815;DHT22;9031;50.974;11.330;2022-09-21T16:57:15;15.50;99.90
17815;DHT22;9031;50.974;11.330;2022-09-21T16:59:41;15.30;99.90
17815;DHT22;9031;50.974;11.330;2022-09-21T17:02:09;15.10;99.90
17815;DHT22;9031;50.974;11.330;2022-09-21T17:04:35;15.00;99.90
17815;DHT22;9031;50.974;11.330;2022-09-21T17:07:01;14.90;99.90
17815;DHT22;9031;50.974;11.330;2022-09-21T17:09:40;14.80;99.90
17815;DHT22;9031;50.974;11.330;2022-09-21T17:12:10;14.70;99.90
17815;DHT22;9031;50.974;11.330;2022-09-21T17:14:36;14.70;99.90
17815;DHT22;9031;50.974;11.330;2022-09-21T17:17:21;14.50;99.90
17815;DHT22;9031;50.974;11.330;2022-09-21T17:19:48;14.40;99.90
17815;DHT22;9031;50.974;11.330;2022-09-21T17:22:15;14.30;99.90
17815;DHT22;9031;50.974;11.330;2022-09-21T17:24:44;14.10;99.90
17815;DHT22;9031;50.974;11.330;2022-09-21T17:27:11;14.10;99.90
17815;DHT22;9031;50.974;11.330;2022-09-21T17:29:37;14.00;99.90
17815;DHT22;9031;50.974;11.330;2022-09-21T17:32:08;13.80;99.90
17815;DHT22;9031;50.974;11.330;2022-09-21T17:34:34;13.70;99.90
17815;DHT22;9031;50.974;11.330;2022-09-21T17:37:00;13.50;99.90
17815;DHT22;9031;50.974;11.330;2022-09-21T17:39:25;13.40;99.90
17815;DHT22;9031;50.974;11.330;2022-09-21T17:42:03;13.30;99.90
17815;DHT22;9031;50.974;11.330;2022-09-21T17:44:51;13.30;99.90
17815;DHT22;9031;50.974;11.330;2022-09-21T17:47:26;13.20;99.90
17815;DHT22;9031;50.974;11.330;2022-09-21T17:49:55;13.10;99.90
17815;DHT22;9031;50.974;11.330;2022-09-21T17:52:23;13.00;99.90
17815;DHT22;9031;50.974;11.330;2022-09-21T17:55:11;12.90;99.90
17815;DHT22;9031;50.974;11.330;2022-09-21T17:57:49;12.80;99.90
17815;DHT22;9031;50.974;11.330;2022-09-21T18:00:22;12.80;99.90
17815;DHT22;9031;50.974;11.330;2022-09-21T18:02:49;12.70;99.90
17815;DHT22;9031;50.974;11.330;2022-09-21T18:05:25;12.60;99.90
17815;DHT22;9031;50.974;11.330;2022-09-21T18:07:51;12.50;99.90
17815;DHT22;9031;50.974;11.330;2022-09-21T18:10:18;12.50;99.90
17815;DHT22;9031;50.974;11.330;2022-09-21T18:18:42;12.20;99.90
17815;DHT22;9031;50.974;11.330;2022-09-21T18:21:15;12.00;99.90
17815;DHT22;9031;50.974;11.330;2022-09-21T18:26:32;11.90;99.90
17815;DHT22;9031;50.974;11.330;2022-09-21T18:28:59;11.80;99.90
17815;DHT22;9031;50.974;11.330;2022-09-21T18:34:57;11.70;99.90
17815;DHT22;9031;50.974;11.330;2022-09-21T18:37:33;11.60;99.90
17815;DHT22;9031;50.974;11.330;2022-09-21T18:48:26;11.40;99.90
17815;DHT22;9031;50.974;11.330;2022-09-21T18:53:49;11.30;99.90
17815;DHT22;9031;50.974;11.330;2022-09-21T18:56:17;11.20;99.90
17815;DHT22;9031;50.974;11.330;2022-09-21T18:58:43;11.20;99.90
17815;DHT22;9031;50.974;11.330;2022-09-21T19:01:12;11.20;99.90
17815;DHT22;9031;50.974;11.330;2022-09-21T19:03:40;11.10;99.90
17815;DHT22;9031;50.974;11.330;2022-09-21T19:06:38;11.10;99.90
17815;DHT22;9031;50.974;11.330;2022-09-21T19:11:57;10.90;99.90
17815;DHT22;9031;50.974;11.330;2022-09-21T19:22:24;10.80;99.90
17815;DHT22;9031;50.974;11.330;2022-09-21T19:25:18;10.80;99.90
17815;DHT22;9031;50.974;11.330;2022-09-21T19:27:57;10.70;99.90
17815;DHT22;9031;50.974;11.330;2022-09-21T19:30:23;10.70;99.90
17815;DHT22;9031;50.974;11.330;2022-09-21T19:32:51;10.70;99.90
17815;DHT22;9031;50.974;11.330;2022-09-21T19:35:22;10.60;99.90
17815;DHT22;9031;50.974;11.330;2022-09-21T19:37:50;10.60;99.90
17815;DHT22;9031;50.974;11.330;2022-09-21T19:40:18;10.60;99.90
17815;DHT22;9031;50.974;11.330;2022-09-21T19:42:49;10.60;99.90
17815;DHT22;9031;50.974;11.330;2022-09-21T19:45:24;10.50;99.90
17815;DHT22;9031;50.974;11.330;2022-09-21T19:47:52;10.50;99.90
17815;DHT22;9031;50.974;11.330;2022-09-21T19:50:22;10.40;99.90